createdAt,value
2023-03-29T00:01:06.633Z,2.13
2023-03-29T00:03:35.287Z,2.28
2023-03-29T00:06:04.337Z,2.30
2023-03-29T00:08:33.980Z,1.80
2023-03-29T00:11:01.632Z,2.40
2023-03-29T00:13:29.375Z,1.80
2023-03-29T00:15:56.709Z,2.10
2023-03-29T00:18:23.844Z,2.20
2023-03-29T00:20:56.137Z,2.42
2023-03-29T00:23:23.299Z,2.28
2023-03-29T00:25:50.990Z,2.20
2023-03-29T00:28:18.126Z,2.38
2023-03-29T00:30:45.560Z,1.90
2023-03-29T00:33:13.628Z,2.50
2023-03-29T00:35:42.691Z,2.45
2023-03-29T00:38:11.300Z,1.95
2023-03-29T00:40:42.020Z,2.20
2023-03-29T00:43:11.159Z,2.17
2023-03-29T00:45:39.056Z,2.20
2023-03-29T00:48:08.864Z,2.30
2023-03-29T00:50:40.268Z,2.20
2023-03-29T00:53:13.239Z,2.33
2023-03-29T00:55:45.620Z,2.53
2023-03-29T00:58:18.091Z,2.55
2023-03-29T01:00:52.196Z,2.17
2023-03-29T01:03:27.430Z,2.25
2023-03-29T01:06:00.375Z,2.38
2023-03-29T01:08:35.856Z,2.35
2023-03-29T01:11:07.288Z,2.50
2023-03-29T01:13:39.447Z,2.55
2023-03-29T01:16:09.712Z,2.60
2023-03-29T01:18:37.217Z,2.08
2023-03-29T01:21:25.228Z,2.00
2023-03-29T01:24:26.056Z,2.40
2023-03-29T01:27:01.076Z,2.40
2023-03-29T01:29:47.224Z,2.42
2023-03-29T01:32:19.739Z,1.88
2023-03-29T01:34:52.205Z,2.00
2023-03-29T01:37:24.861Z,2.10
2023-03-29T01:39:52.733Z,2.58
2023-03-29T01:42:32.370Z,2.28
2023-03-29T01:45:10.291Z,2.63
2023-03-29T01:47:47.002Z,2.10
2023-03-29T01:50:18.874Z,2.28
2023-03-29T01:52:52.056Z,2.15
2023-03-29T01:55:24.400Z,1.83
2023-03-29T01:57:55.660Z,2.50
2023-03-29T02:00:27.706Z,2.58
2023-03-29T02:03:00.251Z,2.90
2023-03-29T02:05:30.621Z,2.45
2023-03-29T02:08:00.426Z,2.10
2023-03-29T02:10:29.916Z,1.92
2023-03-29T02:12:58.735Z,2.38
2023-03-29T02:15:28.154Z,1.98
2023-03-29T02:17:56.937Z,3.03
2023-03-29T02:20:28.628Z,2.92
2023-03-29T02:23:02.321Z,2.80
2023-03-29T02:25:29.646Z,3.38
2023-03-29T02:27:57.385Z,3.25
2023-03-29T02:30:28.126Z,3.42
2023-03-29T02:33:02.016Z,3.90
2023-03-29T02:35:35.080Z,5.38
2023-03-29T02:38:07.835Z,4.93
2023-03-29T02:40:37.656Z,4.65
2023-03-29T02:43:07.755Z,4.15
2023-03-29T02:45:37.604Z,4.38
2023-03-29T02:48:10.936Z,4.68
2023-03-29T02:50:39.353Z,5.45
2023-03-29T02:53:13.198Z,4.47
2023-03-29T02:55:40.473Z,5.38
2023-03-29T02:58:10.764Z,5.00
2023-03-29T03:00:42.112Z,5.57
2023-03-29T03:03:12.076Z,6.90
2023-03-29T03:05:39.546Z,5.50
2023-03-29T03:08:07.690Z,5.97
2023-03-29T03:10:35.483Z,5.32
2023-03-29T03:13:03.689Z,4.97
2023-03-29T03:15:31.252Z,5.70
2023-03-29T03:17:58.577Z,5.28
2023-03-29T03:20:27.275Z,4.38
2023-03-29T03:22:54.816Z,4.32
2023-03-29T03:25:21.849Z,4.43
2023-03-29T03:27:50.281Z,4.05
2023-03-29T03:30:17.966Z,4.38
2023-03-29T03:32:45.264Z,3.70
2023-03-29T03:35:12.992Z,3.50
2023-03-29T03:38:07.384Z,3.60
2023-03-29T03:40:34.507Z,3.38
2023-03-29T03:43:02.017Z,3.83
2023-03-29T03:45:29.120Z,3.92
2023-03-29T03:47:56.679Z,3.30
2023-03-29T03:50:24.488Z,3.60
2023-03-29T03:52:52.080Z,3.40
2023-03-29T03:55:22.041Z,3.67
2023-03-29T03:57:49.262Z,3.92
2023-03-29T04:00:19.628Z,3.88
2023-03-29T04:02:49.017Z,3.85
2023-03-29T04:05:17.215Z,3.25
2023-03-29T04:07:44.652Z,3.25
2023-03-29T04:10:11.863Z,2.92
2023-03-29T04:12:40.741Z,3.75
2023-03-29T04:15:08.988Z,3.30
2023-03-29T04:17:36.328Z,3.63
2023-03-29T04:20:10.275Z,3.45
2023-03-29T04:22:37.653Z,3.63
2023-03-29T04:25:05.652Z,3.50
2023-03-29T04:27:33.150Z,4.65
2023-03-29T04:30:01.562Z,3.88
2023-03-29T04:32:28.874Z,3.85
2023-03-29T04:34:56.487Z,3.95
2023-03-29T04:37:24.127Z,4.53
2023-03-29T04:39:52.531Z,4.57
2023-03-29T04:42:20.369Z,4.97
2023-03-29T04:44:47.518Z,4.68
2023-03-29T04:47:16.314Z,5.03
2023-03-29T04:49:43.326Z,5.03
2023-03-29T04:52:10.810Z,4.35
2023-03-29T04:54:37.947Z,4.88
2023-03-29T04:57:06.017Z,5.13
2023-03-29T04:59:33.356Z,5.30
2023-03-29T05:02:03.164Z,5.40
2023-03-29T05:04:32.553Z,4.60
2023-03-29T05:07:01.679Z,3.80
2023-03-29T05:09:29.551Z,4.72
2023-03-29T05:11:57.197Z,4.37
2023-03-29T05:14:24.492Z,4.38
2023-03-29T05:16:52.133Z,4.20
2023-03-29T05:19:21.854Z,5.03
2023-03-29T05:21:51.220Z,4.72
2023-03-29T05:24:18.738Z,4.38
2023-03-29T05:26:47.721Z,4.50
2023-03-29T05:29:14.829Z,5.32
2023-03-29T05:31:42.350Z,6.63
2023-03-29T05:34:09.624Z,5.07
2023-03-29T05:36:38.216Z,4.45
2023-03-29T05:39:07.163Z,4.25
2023-03-29T05:41:34.585Z,4.40
2023-03-29T05:44:02.554Z,4.53
2023-03-29T05:46:30.062Z,4.73
2023-03-29T05:48:57.369Z,4.05
2023-03-29T05:51:24.810Z,5.47
2023-03-29T05:53:52.128Z,4.85
2023-03-29T05:56:20.886Z,4.50
2023-03-29T05:58:49.247Z,4.67
2023-03-29T06:01:19.651Z,4.63
2023-03-29T06:03:47.457Z,4.30
2023-03-29T06:06:16.638Z,4.10
2023-03-29T06:08:45.024Z,4.07
2023-03-29T06:11:13.475Z,3.80
2023-03-29T06:13:42.262Z,4.53
2023-03-29T06:18:40.307Z,4.53
2023-03-29T06:21:09.456Z,4.95
2023-03-29T06:23:36.768Z,5.85
2023-03-29T06:26:05.668Z,5.20
2023-03-29T06:28:33.056Z,5.72
2023-03-29T06:31:03.271Z,5.53
2023-03-29T06:33:32.446Z,5.95
2023-03-29T06:35:59.956Z,5.45
2023-03-29T06:38:28.457Z,6.65
2023-03-29T06:41:01.534Z,6.63
2023-03-29T06:43:28.859Z,6.07
2023-03-29T06:45:56.386Z,5.40
2023-03-29T06:48:25.019Z,5.47
2023-03-29T06:50:54.525Z,4.95
2023-03-29T06:53:22.165Z,5.53
2023-03-29T06:55:51.840Z,5.38
2023-03-29T06:58:18.833Z,5.00
2023-03-29T07:00:47.512Z,3.90
2023-03-29T07:03:20.405Z,3.53
2023-03-29T07:05:51.812Z,3.97
2023-03-29T07:08:21.294Z,3.92
2023-03-29T07:10:53.284Z,3.25
2023-03-29T07:13:20.432Z,3.42
2023-03-29T07:15:47.829Z,3.80
2023-03-29T07:18:14.916Z,3.92
2023-03-29T07:20:42.613Z,4.30
2023-03-29T07:23:11.897Z,4.30
2023-03-29T07:25:39.410Z,3.53
2023-03-29T07:28:06.879Z,4.07
2023-03-29T07:30:34.604Z,3.13
2023-03-29T07:33:01.609Z,3.22
2023-03-29T07:35:29.205Z,3.35
2023-03-29T07:37:56.304Z,2.92
2023-03-29T07:40:26.444Z,2.40
2023-03-29T07:42:55.259Z,2.15
2023-03-29T07:45:26.656Z,2.35
2023-03-29T07:47:57.302Z,2.30
2023-03-29T07:50:25.785Z,3.40
2023-03-29T07:52:53.278Z,2.60
2023-03-29T07:55:22.340Z,2.95
2023-03-29T07:57:51.737Z,3.00
2023-03-29T08:00:20.362Z,2.63
2023-03-29T08:02:49.838Z,2.55
2023-03-29T08:05:26.160Z,4.03
2023-03-29T08:07:56.673Z,2.50
2023-03-29T08:10:24.423Z,2.38
2023-03-29T08:12:53.666Z,2.28
2023-03-29T08:15:20.979Z,3.20
2023-03-29T08:17:48.110Z,2.95
2023-03-29T08:20:18.388Z,2.78
2023-03-29T08:22:45.481Z,2.50
2023-03-29T08:25:12.940Z,2.63
2023-03-29T08:27:39.941Z,2.47
2023-03-29T08:30:10.122Z,2.85
2023-03-29T08:32:37.594Z,2.53
2023-03-29T08:35:07.386Z,2.65
2023-03-29T08:37:34.466Z,2.42
2023-03-29T08:40:02.295Z,2.78
2023-03-29T08:42:54.397Z,2.58
2023-03-29T08:45:29.341Z,2.70
2023-03-29T08:48:08.424Z,2.30
2023-03-29T08:50:39.699Z,2.10
2023-03-29T08:53:12.048Z,2.55
2023-03-29T08:55:42.679Z,2.10
2023-03-29T08:58:15.900Z,2.30
2023-03-29T09:00:48.593Z,2.17
2023-03-29T09:03:22.297Z,2.30
2023-03-29T09:05:53.610Z,2.40
2023-03-29T09:08:22.653Z,1.80
2023-03-29T09:11:07.925Z,2.50
2023-03-29T09:13:43.990Z,2.03
2023-03-29T09:16:22.739Z,2.63
2023-03-29T09:19:02.040Z,3.25
2023-03-29T09:21:37.733Z,2.20
2023-03-29T09:24:28.932Z,2.85
2023-03-29T09:27:00.703Z,2.40
2023-03-29T09:29:52.600Z,2.45
2023-03-29T09:32:23.435Z,2.40
2023-03-29T09:34:58.368Z,2.95
2023-03-29T09:37:32.011Z,2.28
2023-03-29T09:39:59.978Z,2.22
2023-03-29T09:42:30.555Z,2.40
2023-03-29T09:45:03.449Z,2.75
2023-03-29T09:47:36.166Z,2.25
2023-03-29T09:50:23.008Z,2.10
2023-03-29T09:52:58.028Z,2.10
2023-03-29T09:55:28.276Z,2.95
2023-03-29T09:58:00.364Z,2.38
2023-03-29T10:00:27.976Z,2.35
2023-03-29T10:02:58.975Z,2.53
2023-03-29T10:05:30.043Z,2.10
2023-03-29T10:08:02.416Z,2.45
2023-03-29T10:10:32.389Z,2.08
2023-03-29T10:13:03.388Z,2.30
2023-03-29T10:15:30.935Z,2.50
2023-03-29T10:18:01.155Z,2.40
2023-03-29T10:20:28.425Z,2.45
2023-03-29T10:22:57.699Z,2.58
2023-03-29T10:25:27.585Z,2.33
2023-03-29T10:27:58.518Z,2.35
2023-03-29T10:30:26.334Z,2.53
2023-03-29T10:32:58.020Z,2.20
2023-03-29T10:35:30.001Z,2.55
2023-03-29T10:37:59.406Z,2.10
2023-03-29T10:42:59.684Z,2.20
2023-03-29T10:45:29.262Z,2.28
2023-03-29T10:47:58.020Z,2.35
2023-03-29T10:50:34.325Z,2.53
2023-03-29T10:53:03.290Z,2.30
2023-03-29T10:55:37.096Z,2.30
2023-03-29T10:58:17.021Z,2.50
2023-03-29T11:00:50.221Z,2.20
2023-03-29T11:03:38.433Z,2.25
2023-03-29T11:06:16.537Z,2.47
2023-03-29T11:08:52.768Z,1.85
2023-03-29T11:11:41.252Z,2.10
2023-03-29T11:14:24.811Z,1.98
2023-03-29T11:17:05.001Z,1.90
2023-03-29T11:20:02.381Z,1.80
2023-03-29T11:22:46.313Z,2.10
2023-03-29T11:25:24.747Z,2.20
2023-03-29T11:27:59.082Z,1.77
2023-03-29T11:30:35.309Z,2.40
2023-03-29T11:33:12.379Z,1.98
2023-03-29T11:35:48.359Z,2.10
2023-03-29T11:38:28.037Z,2.08
2023-03-29T11:41:01.638Z,2.10
2023-03-29T11:43:35.009Z,1.70
2023-03-29T11:46:11.463Z,2.17
2023-03-29T11:48:43.293Z,2.10
2023-03-29T11:51:16.267Z,2.15
2023-03-29T11:53:53.820Z,2.42
2023-03-29T11:56:27.716Z,2.10
2023-03-29T11:59:01.455Z,2.63
2023-03-29T12:01:33.470Z,2.40
2023-03-29T12:04:06.237Z,2.22
2023-03-29T12:06:39.330Z,3.53
2023-03-29T12:09:14.263Z,2.25
2023-03-29T12:11:54.483Z,2.42
2023-03-29T12:14:32.641Z,1.90
2023-03-29T12:17:06.092Z,1.83
2023-03-29T12:19:42.633Z,2.13
2023-03-29T12:22:11.201Z,1.90
2023-03-29T12:24:43.217Z,3.70
2023-03-29T12:27:26.589Z,2.40
2023-03-29T12:30:21.652Z,2.78
2023-03-29T12:33:07.359Z,1.90
2023-03-29T12:35:45.492Z,2.08
2023-03-29T12:38:19.618Z,1.65
2023-03-29T12:40:54.485Z,2.30
2023-03-29T12:43:26.222Z,1.90
2023-03-29T12:45:57.164Z,1.90
2023-03-29T12:48:27.901Z,2.00
2023-03-29T12:51:03.341Z,1.70
2023-03-29T12:53:34.391Z,1.70
2023-03-29T12:56:13.375Z,1.88
2023-03-29T12:59:05.639Z,1.73
2023-03-29T13:01:34.357Z,1.60
2023-03-29T13:07:07.190Z,1.95
2023-03-29T13:09:42.793Z,1.92
2023-03-29T13:12:24.080Z,1.80
2023-03-29T13:14:55.215Z,1.90
2023-03-29T13:17:31.912Z,1.70
2023-03-29T13:20:13.671Z,1.88
2023-03-29T13:22:50.964Z,1.73
2023-03-29T13:25:44.063Z,1.80
2023-03-29T13:28:20.461Z,2.20
2023-03-29T13:30:57.688Z,2.20
2023-03-29T13:33:43.761Z,2.08
2023-03-29T13:36:19.893Z,2.47
2023-03-29T13:38:49.475Z,1.95
2023-03-29T13:41:43.739Z,2.05
2023-03-29T13:44:26.077Z,2.00
2023-03-29T13:47:03.741Z,2.00
2023-03-29T13:49:33.927Z,2.15
2023-03-29T13:52:13.359Z,1.95
2023-03-29T13:54:45.656Z,2.00
2023-03-29T13:57:20.207Z,1.98
2023-03-29T14:00:01.338Z,2.00
2023-03-29T14:02:35.647Z,1.60
2023-03-29T14:05:05.707Z,2.20
2023-03-29T14:07:37.276Z,2.22
2023-03-29T14:10:05.139Z,2.17
2023-03-29T14:12:37.755Z,3.20
2023-03-29T14:15:18.304Z,2.58
2023-03-29T14:17:46.804Z,2.30
2023-03-29T14:20:15.716Z,2.42
2023-03-29T14:22:44.292Z,2.08
2023-03-29T14:25:17.235Z,2.13
2023-03-29T14:27:44.901Z,2.30
2023-03-29T14:30:25.379Z,2.10
2023-03-29T14:32:53.022Z,2.20
2023-03-29T14:35:27.315Z,1.92
2023-03-29T14:37:55.284Z,2.28
2023-03-29T14:40:26.003Z,2.33
2023-03-29T14:42:54.005Z,2.20
2023-03-29T14:45:25.791Z,2.42
2023-03-29T14:47:53.499Z,2.45
2023-03-29T14:50:27.160Z,2.20
2023-03-29T14:52:57.777Z,2.53
2023-03-29T14:55:26.233Z,2.00
2023-03-29T14:57:55.327Z,2.50
2023-03-29T15:00:28.715Z,2.22
2023-03-29T15:03:00.785Z,2.90
2023-03-29T15:05:37.535Z,2.45
2023-03-29T15:08:07.622Z,2.40
2023-03-29T15:10:37.175Z,2.10
2023-03-29T15:13:06.864Z,2.28
2023-03-29T15:15:38.339Z,2.20
2023-03-29T15:18:08.278Z,2.90
2023-03-29T15:20:44.325Z,1.92
2023-03-29T15:23:24.019Z,2.88
2023-03-29T15:25:56.438Z,2.20
2023-03-29T15:28:28.429Z,2.10
2023-03-29T15:31:07.686Z,2.17
2023-03-29T15:33:37.460Z,1.80
2023-03-29T15:38:43.061Z,2.05
2023-03-29T15:41:15.698Z,2.22
2023-03-29T15:43:43.244Z,2.42
2023-03-29T15:46:18.074Z,2.20
2023-03-29T15:48:45.854Z,1.90
2023-03-29T15:51:13.075Z,2.40
2023-03-29T15:53:40.933Z,2.50
2023-03-29T15:56:12.261Z,2.55
2023-03-29T15:58:39.804Z,2.70
2023-03-29T16:01:13.544Z,2.15
2023-03-29T16:03:47.074Z,2.70
2023-03-29T16:06:16.086Z,2.38
2023-03-29T16:08:46.202Z,2.40
2023-03-29T16:11:13.204Z,2.13
2023-03-29T16:13:40.646Z,2.22
2023-03-29T16:16:10.593Z,2.10
2023-03-29T16:18:37.940Z,2.40
2023-03-29T16:21:12.483Z,2.30
2023-03-29T16:23:40.764Z,2.53
2023-03-29T16:26:08.358Z,2.33
2023-03-29T16:28:37.008Z,2.33
2023-03-29T16:31:05.106Z,2.42
2023-03-29T16:33:32.880Z,2.35
2023-03-29T16:35:59.874Z,2.15
2023-03-29T16:38:29.305Z,2.78
2023-03-29T16:40:57.138Z,2.40
2023-03-29T16:43:24.334Z,4.47
2023-03-29T16:45:51.545Z,2.60
2023-03-29T16:48:21.868Z,2.33
2023-03-29T16:50:49.514Z,2.40
2023-03-29T16:53:18.262Z,2.55
2023-03-29T16:55:47.306Z,2.65
2023-03-29T16:58:16.673Z,2.42
2023-03-29T17:00:46.318Z,2.70
2023-03-29T17:03:15.920Z,2.45
2023-03-29T17:05:48.635Z,2.58
2023-03-29T17:08:16.441Z,2.85
2023-03-29T17:10:43.730Z,20.33
2023-03-29T17:13:13.170Z,6.32
2023-03-29T17:18:07.465Z,6.13
2023-03-29T17:20:34.686Z,5.68
2023-03-29T17:23:02.097Z,6.07
2023-03-29T17:25:29.193Z,5.70
2023-03-29T17:27:57.214Z,5.32
2023-03-29T17:30:25.759Z,6.53
2023-03-29T17:32:53.736Z,6.50
2023-03-29T17:35:20.949Z,5.70
2023-03-29T17:37:48.147Z,6.95
2023-03-29T17:40:15.254Z,6.85
2023-03-29T17:42:43.268Z,5.53
2023-03-29T17:45:11.344Z,5.78
2023-03-29T17:47:40.936Z,7.28
2023-03-29T17:50:12.007Z,10.25
2023-03-29T17:52:40.432Z,10.48
2023-03-29T17:55:11.194Z,10.20
2023-03-29T17:57:39.009Z,11.13
2023-03-29T18:00:09.405Z,11.25
2023-03-29T18:02:37.025Z,9.73
2023-03-29T18:05:09.453Z,9.05
2023-03-29T18:07:37.330Z,9.82
2023-03-29T18:10:04.995Z,11.10
2023-03-29T18:12:32.650Z,11.30
2023-03-29T18:14:59.824Z,14.05
2023-03-29T18:17:29.920Z,14.07
2023-03-29T18:19:57.557Z,14.88
2023-03-29T18:22:27.793Z,15.63
2023-03-29T18:24:55.046Z,16.95
2023-03-29T18:27:22.583Z,18.50
2023-03-29T18:29:49.637Z,17.85
2023-03-29T18:32:17.572Z,19.23
2023-03-29T18:34:47.154Z,22.25
2023-03-29T18:37:17.551Z,22.17
2023-03-29T18:39:47.106Z,20.95
2023-03-29T18:42:14.903Z,19.20
2023-03-29T18:44:42.254Z,18.25
2023-03-29T18:47:09.655Z,16.05
2023-03-29T18:49:36.889Z,14.88
2023-03-29T18:52:05.826Z,12.02
2023-03-29T18:54:32.915Z,13.38
2023-03-29T18:57:04.359Z,14.88
2023-03-29T18:59:35.948Z,15.18
2023-03-29T19:02:03.769Z,21.70
2023-03-29T19:04:31.790Z,19.67
2023-03-29T19:07:03.520Z,17.70
2023-03-29T19:09:31.754Z,19.98
2023-03-29T19:12:03.414Z,19.70
2023-03-29T19:14:32.640Z,18.55
2023-03-29T19:17:02.901Z,20.83
2023-03-29T19:19:30.072Z,19.98
2023-03-29T19:22:00.271Z,17.05
2023-03-29T19:24:27.745Z,17.25
2023-03-29T19:26:56.643Z,16.90
2023-03-29T19:29:25.912Z,17.40
2023-03-29T19:31:56.430Z,19.85
2023-03-29T19:34:24.382Z,17.48
2023-03-29T19:36:53.434Z,21.73
2023-03-29T19:39:26.905Z,17.35
2023-03-29T19:41:56.285Z,19.58
2023-03-29T19:46:54.663Z,17.00
2023-03-29T19:49:21.755Z,17.48
2023-03-29T19:51:50.455Z,22.70
2023-03-29T19:54:17.607Z,15.80
2023-03-29T19:56:45.200Z,13.88
2023-03-29T19:59:14.833Z,13.73
2023-03-29T20:01:51.097Z,14.52
2023-03-29T20:04:20.892Z,15.75
2023-03-29T20:06:51.749Z,17.08
2023-03-29T20:09:18.793Z,13.77
2023-03-29T20:11:50.969Z,12.65
2023-03-29T20:14:18.203Z,14.10
2023-03-29T20:16:46.314Z,18.33
2023-03-29T20:19:17.653Z,19.45
2023-03-29T20:21:46.444Z,19.70
2023-03-29T20:24:13.570Z,23.88
2023-03-29T20:26:41.104Z,20.73
2023-03-29T20:29:08.677Z,17.23
2023-03-29T20:31:36.208Z,16.58
2023-03-29T20:34:03.425Z,13.27
2023-03-29T20:36:31.754Z,10.82
2023-03-29T20:39:01.301Z,12.10
2023-03-29T20:41:28.612Z,11.63
2023-03-29T20:43:58.411Z,12.77
2023-03-29T20:46:33.256Z,11.63
2023-03-29T20:49:01.555Z,11.02
2023-03-29T20:51:30.428Z,11.88
2023-03-29T20:54:02.574Z,10.00
2023-03-29T20:56:35.256Z,10.63
2023-03-29T20:59:04.037Z,14.10
2023-03-29T21:03:59.100Z,10.90
2023-03-29T21:06:26.338Z,10.65
2023-03-29T21:08:53.539Z,11.68
2023-03-29T21:11:23.924Z,10.82
2023-03-29T21:13:52.848Z,13.48
2023-03-29T21:18:47.966Z,10.82
2023-03-29T21:21:17.359Z,11.75
2023-03-29T21:26:11.602Z,9.88
2023-03-29T21:28:38.600Z,9.10
2023-03-29T21:31:08.238Z,10.65
2023-03-29T21:33:35.629Z,10.60
2023-03-29T21:36:03.006Z,10.70
2023-03-29T21:38:30.090Z,8.90
2023-03-29T21:40:58.189Z,9.75
2023-03-29T21:43:25.460Z,10.02
2023-03-29T21:45:52.816Z,7.63
2023-03-29T21:48:21.172Z,8.10
2023-03-29T21:50:49.372Z,8.88
2023-03-29T21:53:16.809Z,9.48
2023-03-29T21:55:44.149Z,10.88
2023-03-29T21:58:11.094Z,10.50
2023-03-29T22:00:38.390Z,10.60
2023-03-29T22:03:06.075Z,11.68
2023-03-29T22:05:35.115Z,9.95
2023-03-29T22:08:02.061Z,10.57
2023-03-29T22:10:29.586Z,10.35
2023-03-29T22:12:57.173Z,10.02
2023-03-29T22:15:24.522Z,9.65
2023-03-29T22:17:53.446Z,9.63
2023-03-29T22:22:50.354Z,8.13
2023-03-29T22:25:19.348Z,7.35
2023-03-29T22:27:47.890Z,7.72
2023-03-29T22:30:16.244Z,7.40
2023-03-29T22:32:43.379Z,7.32
2023-03-29T22:35:10.989Z,7.43
2023-03-29T22:37:41.205Z,7.10
2023-03-29T22:40:12.088Z,7.30
2023-03-29T22:42:39.010Z,7.20
2023-03-29T22:45:07.534Z,7.47
2023-03-29T22:47:35.377Z,8.17
2023-03-29T22:50:02.783Z,8.35
2023-03-29T22:52:29.814Z,9.27
2023-03-29T22:54:57.366Z,9.25
2023-03-29T22:57:25.889Z,12.60
2023-03-29T22:59:53.243Z,11.02
2023-03-29T23:02:20.603Z,9.73
2023-03-29T23:04:48.123Z,9.70
2023-03-29T23:07:15.236Z,8.52
2023-03-29T23:09:42.379Z,9.18
2023-03-29T23:12:09.767Z,7.80
2023-03-29T23:14:42.737Z,9.38
2023-03-29T23:17:10.405Z,8.93
2023-03-29T23:19:38.164Z,9.57
2023-03-29T23:22:05.356Z,9.15
2023-03-29T23:24:33.430Z,9.45
2023-03-29T23:27:01.181Z,8.52
2023-03-29T23:29:28.825Z,8.73
2023-03-29T23:31:57.408Z,9.02
2023-03-29T23:34:25.221Z,9.25
2023-03-29T23:36:52.218Z,8.95
2023-03-29T23:39:19.529Z,9.75
2023-03-29T23:41:46.562Z,9.38
2023-03-29T23:44:13.866Z,9.60
2023-03-29T23:46:41.938Z,9.30
2023-03-29T23:49:10.897Z,8.13
2023-03-29T23:51:39.201Z,8.57
2023-03-29T23:54:25.321Z,8.95
2023-03-29T23:56:52.286Z,9.27
2023-03-29T23:59:19.593Z,9.05
